sensor_id;sensor_type;location;lat;lon;timestamp;P1;durP1;ratioP1;P2;durP2;ratioP2
24301;SDS011;12421;49.732;20.078;2022-09-09T00:03:19;9.03;;;5.17;;
24301;SDS011;12421;49.732;20.078;2022-09-09T00:13:31;8.55;;;5.83;;
24301;SDS011;12421;49.732;20.078;2022-09-09T00:23:50;7.00;;;5.05;;
24301;SDS011;12421;49.732;20.078;2022-09-09T00:33:58;7.65;;;5.83;;
24301;SDS011;12421;49.732;20.078;2022-09-09T01:04:47;8.33;;;5.75;;
24301;SDS011;12421;49.732;20.078;2022-09-09T01:15:01;8.15;;;4.97;;
24301;SDS011;12421;49.732;20.078;2022-09-09T01:46:01;4.87;;;2.02;;
24301;SDS011;12421;49.732;20.078;2022-09-09T01:56:28;7.33;;;2.10;;
24301;SDS011;12421;49.732;20.078;2022-09-09T02:06:47;5.12;;;2.02;;
24301;SDS011;12421;49.732;20.078;2022-09-09T02:16:55;10.00;;;2.37;;
24301;SDS011;12421;49.732;20.078;2022-09-09T02:27:08;3.80;;;1.80;;
24301;SDS011;12421;49.732;20.078;2022-09-09T02:37:12;3.60;;;1.98;;
24301;SDS011;12421;49.732;20.078;2022-09-09T02:47:27;4.10;;;2.15;;
24301;SDS011;12421;49.732;20.078;2022-09-09T02:57:35;5.75;;;2.30;;
24301;SDS011;12421;49.732;20.078;2022-09-09T03:07:39;3.33;;;1.70;;
24301;SDS011;12421;49.732;20.078;2022-09-09T03:17:43;7.80;;;2.02;;
24301;SDS011;12421;49.732;20.078;2022-09-09T03:27:45;6.75;;;2.00;;
24301;SDS011;12421;49.732;20.078;2022-09-09T03:37:48;7.78;;;2.55;;
24301;SDS011;12421;49.732;20.078;2022-09-09T03:47:51;9.35;;;4.25;;
24301;SDS011;12421;49.732;20.078;2022-09-09T03:57:53;6.10;;;1.95;;
24301;SDS011;12421;49.732;20.078;2022-09-09T04:07:56;2.35;;;1.30;;
24301;SDS011;12421;49.732;20.078;2022-09-09T04:17:59;5.05;;;1.57;;
24301;SDS011;12421;49.732;20.078;2022-09-09T04:28:02;3.37;;;1.30;;
24301;SDS011;12421;49.732;20.078;2022-09-09T04:38:04;5.80;;;1.60;;
24301;SDS011;12421;49.732;20.078;2022-09-09T04:48:11;4.67;;;1.30;;
24301;SDS011;12421;49.732;20.078;2022-09-09T04:58:14;3.42;;;2.02;;
24301;SDS011;12421;49.732;20.078;2022-09-09T05:08:18;3.00;;;1.60;;
24301;SDS011;12421;49.732;20.078;2022-09-09T05:18:22;3.87;;;1.65;;
24301;SDS011;12421;49.732;20.078;2022-09-09T05:28:25;5.87;;;1.90;;
24301;SDS011;12421;49.732;20.078;2022-09-09T05:38:28;5.70;;;1.80;;
24301;SDS011;12421;49.732;20.078;2022-09-09T05:48:34;3.20;;;2.20;;
24301;SDS011;12421;49.732;20.078;2022-09-09T05:58:38;5.53;;;2.77;;
24301;SDS011;12421;49.732;20.078;2022-09-09T06:08:44;3.20;;;1.93;;
24301;SDS011;12421;49.732;20.078;2022-09-09T06:18:48;4.25;;;2.20;;
24301;SDS011;12421;49.732;20.078;2022-09-09T06:28:52;4.45;;;2.50;;
24301;SDS011;12421;49.732;20.078;2022-09-09T06:38:56;4.85;;;1.77;;
24301;SDS011;12421;49.732;20.078;2022-09-09T06:48:59;5.70;;;1.55;;
24301;SDS011;12421;49.732;20.078;2022-09-09T06:59:03;3.22;;;1.42;;
24301;SDS011;12421;49.732;20.078;2022-09-09T07:09:08;2.20;;;1.22;;
24301;SDS011;12421;49.732;20.078;2022-09-09T07:19:16;4.78;;;1.30;;
24301;SDS011;12421;49.732;20.078;2022-09-09T07:29:19;2.00;;;1.02;;
24301;SDS011;12421;49.732;20.078;2022-09-09T07:39:22;2.55;;;1.17;;
24301;SDS011;12421;49.732;20.078;2022-09-09T07:49:26;1.32;;;0.80;;
24301;SDS011;12421;49.732;20.078;2022-09-09T07:59:29;2.10;;;0.75;;
24301;SDS011;12421;49.732;20.078;2022-09-09T08:09:33;1.62;;;0.85;;
24301;SDS011;12421;49.732;20.078;2022-09-09T08:19:39;1.87;;;1.00;;
24301;SDS011;12421;49.732;20.078;2022-09-09T08:29:44;1.57;;;0.80;;
24301;SDS011;12421;49.732;20.078;2022-09-09T08:39:46;3.35;;;1.20;;
24301;SDS011;12421;49.732;20.078;2022-09-09T09:00:32;3.25;;;1.00;;
24301;SDS011;12421;49.732;20.078;2022-09-09T09:10:46;1.77;;;1.05;;
24301;SDS011;12421;49.732;20.078;2022-09-09T09:41:29;2.25;;;0.90;;
24301;SDS011;12421;49.732;20.078;2022-09-09T09:51:42;1.25;;;0.50;;
24301;SDS011;12421;49.732;20.078;2022-09-09T10:01:45;1.30;;;0.40;;
24301;SDS011;12421;49.732;20.078;2022-09-09T10:32:36;1.87;;;0.70;;
24301;SDS011;12421;49.732;20.078;2022-09-09T10:42:47;1.22;;;0.57;;
24301;SDS011;12421;49.732;20.078;2022-09-09T10:53:02;4.10;;;0.90;;
24301;SDS011;12421;49.732;20.078;2022-09-09T11:03:35;2.23;;;0.80;;
24301;SDS011;12421;49.732;20.078;2022-09-09T11:24:16;1.82;;;0.80;;
24301;SDS011;12421;49.732;20.078;2022-09-09T11:44:57;3.42;;;0.72;;
24301;SDS011;12421;49.732;20.078;2022-09-09T12:05:41;1.75;;;0.70;;
24301;SDS011;12421;49.732;20.078;2022-09-09T12:15:48;2.37;;;0.80;;
24301;SDS011;12421;49.732;20.078;2022-09-09T12:36:36;1.57;;;0.88;;
24301;SDS011;12421;49.732;20.078;2022-09-09T12:46:41;2.03;;;0.80;;
24301;SDS011;12421;49.732;20.078;2022-09-09T12:56:46;1.50;;;0.60;;
24301;SDS011;12421;49.732;20.078;2022-09-09T13:06:51;0.90;;;0.50;;
24301;SDS011;12421;49.732;20.078;2022-09-09T13:27:05;2.47;;;0.80;;
24301;SDS011;12421;49.732;20.078;2022-09-09T13:37:36;2.02;;;0.78;;
24301;SDS011;12421;49.732;20.078;2022-09-09T13:47:39;1.57;;;0.72;;
24301;SDS011;12421;49.732;20.078;2022-09-09T14:07:58;1.62;;;0.70;;
24301;SDS011;12421;49.732;20.078;2022-09-09T14:18:02;2.83;;;0.70;;
24301;SDS011;12421;49.732;20.078;2022-09-09T14:28:07;3.77;;;0.98;;
24301;SDS011;12421;49.732;20.078;2022-09-09T14:38:14;3.47;;;1.02;;
24301;SDS011;12421;49.732;20.078;2022-09-09T14:48:17;2.50;;;1.27;;
24301;SDS011;12421;49.732;20.078;2022-09-09T14:58:21;3.45;;;1.30;;
24301;SDS011;12421;49.732;20.078;2022-09-09T15:08:24;3.37;;;0.87;;
24301;SDS011;12421;49.732;20.078;2022-09-09T15:18:27;1.95;;;1.05;;
24301;SDS011;12421;49.732;20.078;2022-09-09T15:28:31;3.67;;;0.90;;
24301;SDS011;12421;49.732;20.078;2022-09-09T15:38:38;3.67;;;1.15;;
24301;SDS011;12421;49.732;20.078;2022-09-09T15:48:41;5.37;;;1.10;;
24301;SDS011;12421;49.732;20.078;2022-09-09T15:58:45;2.47;;;1.10;;
24301;SDS011;12421;49.732;20.078;2022-09-09T16:08:49;3.42;;;1.05;;
24301;SDS011;12421;49.732;20.078;2022-09-09T16:18:55;2.20;;;1.30;;
24301;SDS011;12421;49.732;20.078;2022-09-09T16:29:00;2.53;;;1.37;;
24301;SDS011;12421;49.732;20.078;2022-09-09T16:39:05;5.17;;;1.72;;
24301;SDS011;12421;49.732;20.078;2022-09-09T16:49:11;6.90;;;2.20;;
24301;SDS011;12421;49.732;20.078;2022-09-09T16:59:21;7.03;;;1.70;;
24301;SDS011;12421;49.732;20.078;2022-09-09T17:09:22;5.90;;;3.17;;
24301;SDS011;12421;49.732;20.078;2022-09-09T17:19:28;8.80;;;5.33;;
24301;SDS011;12421;49.732;20.078;2022-09-09T17:29:30;11.85;;;8.55;;
24301;SDS011;12421;49.732;20.078;2022-09-09T17:39:32;10.03;;;7.65;;
24301;SDS011;12421;49.732;20.078;2022-09-09T17:49:35;12.55;;;7.08;;
24301;SDS011;12421;49.732;20.078;2022-09-09T17:59:38;10.18;;;5.85;;
24301;SDS011;12421;49.732;20.078;2022-09-09T18:09:42;12.78;;;5.85;;
24301;SDS011;12421;49.732;20.078;2022-09-09T18:19:45;15.35;;;8.23;;
24301;SDS011;12421;49.732;20.078;2022-09-09T18:29:47;17.27;;;10.58;;
24301;SDS011;12421;49.732;20.078;2022-09-09T18:39:50;15.85;;;10.20;;
24301;SDS011;12421;49.732;20.078;2022-09-09T18:49:53;14.77;;;8.80;;
24301;SDS011;12421;49.732;20.078;2022-09-09T18:59:56;15.53;;;10.48;;
24301;SDS011;12421;49.732;20.078;2022-09-09T19:09:59;12.65;;;7.12;;
24301;SDS011;12421;49.732;20.078;2022-09-09T19:20:03;14.35;;;9.40;;
24301;SDS011;12421;49.732;20.078;2022-09-09T19:30:09;19.27;;;9.25;;
24301;SDS011;12421;49.732;20.078;2022-09-09T19:40:13;16.35;;;7.50;;
24301;SDS011;12421;49.732;20.078;2022-09-09T19:50:16;16.15;;;7.60;;
24301;SDS011;12421;49.732;20.078;2022-09-09T20:00:19;13.43;;;6.95;;
24301;SDS011;12421;49.732;20.078;2022-09-09T20:10:22;14.43;;;7.30;;
24301;SDS011;12421;49.732;20.078;2022-09-09T20:20:24;14.07;;;6.60;;
24301;SDS011;12421;49.732;20.078;2022-09-09T20:30:26;11.88;;;6.60;;
24301;SDS011;12421;49.732;20.078;2022-09-09T20:40:29;15.35;;;7.33;;
24301;SDS011;12421;49.732;20.078;2022-09-09T20:50:35;11.83;;;5.90;;
24301;SDS011;12421;49.732;20.078;2022-09-09T21:00:38;10.45;;;5.72;;
24301;SDS011;12421;49.732;20.078;2022-09-09T21:10:42;12.58;;;5.72;;
24301;SDS011;12421;49.732;20.078;2022-09-09T21:20:49;9.88;;;5.55;;
24301;SDS011;12421;49.732;20.078;2022-09-09T21:30:53;11.78;;;5.55;;
24301;SDS011;12421;49.732;20.078;2022-09-09T21:41:00;11.45;;;6.33;;
24301;SDS011;12421;49.732;20.078;2022-09-09T21:51:12;9.30;;;5.33;;
24301;SDS011;12421;49.732;20.078;2022-09-09T22:01:17;9.95;;;5.62;;
24301;SDS011;12421;49.732;20.078;2022-09-09T22:11:20;12.70;;;6.40;;
24301;SDS011;12421;49.732;20.078;2022-09-09T22:21:23;12.65;;;5.70;;
24301;SDS011;12421;49.732;20.078;2022-09-09T22:31:27;9.28;;;5.58;;
24301;SDS011;12421;49.732;20.078;2022-09-09T22:41:29;12.07;;;5.60;;
24301;SDS011;12421;49.732;20.078;2022-09-09T22:51:32;11.97;;;5.53;;
24301;SDS011;12421;49.732;20.078;2022-09-09T23:01:37;13.00;;;5.90;;
24301;SDS011;12421;49.732;20.078;2022-09-09T23:11:39;7.35;;;5.20;;
24301;SDS011;12421;49.732;20.078;2022-09-09T23:21:43;8.50;;;5.22;;
24301;SDS011;12421;49.732;20.078;2022-09-09T23:31:47;11.35;;;4.75;;
24301;SDS011;12421;49.732;20.078;2022-09-09T23:41:49;11.30;;;5.17;;
24301;SDS011;12421;49.732;20.078;2022-09-09T23:51:51;7.65;;;5.05;;
